Time;durP1;ratioP1;P1;durP2;ratioP2;P2;SDS_P1;SDS_P2;PMS_P1;PMS_P2;Temp;Humidity;BMP_temperature;BMP_pressure;BME280_temperature;BME280_humidity;BME280_pressure;Samples;Min_cycle;Max_cycle;Signal;HPM_P1;HPM_P2
2021/04/24 00:01:42;;;;;;;7.00;5.17;;;14.90;32.10;;;;;;5102795;28;20490;-86
2021/04/24 00:04:08;;;;;;;10.63;5.83;;;15.10;32.30;;;;;;5101176;28;20473;-86
2021/04/24 00:06:35;;;;;;;7.37;4.83;;;15.40;32.10;;;;;;5101674;28;20474;-87
2021/04/24 00:09:01;;;;;;;13.00;6.07;;;15.60;31.50;;;;;;5113236;28;20465;-87
2021/04/24 00:11:29;;;;;;;13.60;5.57;;;15.80;31.30;;;;;;5122880;28;20445;-86
2021/04/24 00:13:55;;;;;;;14.80;6.20;;;15.70;31.20;;;;;;5123076;28;20449;-85
2021/04/24 00:16:22;;;;;;;15.30;6.23;;;15.60;30.00;;;;;;5114237;28;20458;-86
2021/04/24 00:18:49;;;;;;;16.40;6.23;;;15.50;30.90;;;;;;5110563;28;20450;-87
2021/04/24 00:21:16;;;;;;;20.13;7.07;;;15.10;31.00;;;;;;5118987;28;20464;-86
2021/04/24 00:23:42;;;;;;;11.10;6.40;;;15.20;31.10;;;;;;5120509;28;20406;-86
2021/04/24 00:26:09;;;;;;;11.67;6.00;;;15.30;32.10;;;;;;5118757;28;20513;-86
2021/04/24 00:28:36;;;;;;;12.53;7.30;;;15.20;30.90;;;;;;5111461;28;20462;-87
2021/04/24 00:31:03;;;;;;;13.97;6.80;;;15.00;30.90;;;;;;5108492;28;20462;-86
2021/04/24 00:33:29;;;;;;;17.60;6.03;;;15.00;30.30;;;;;;5127806;28;20518;-87
2021/04/24 00:35:56;;;;;;;13.07;6.47;;;13.90;31.90;;;;;;5129068;28;20453;-87
2021/04/24 00:38:22;;;;;;;9.57;5.90;;;14.20;33.40;;;;;;5117270;28;20462;-87
2021/04/24 00:40:49;;;;;;;13.53;6.03;;;14.50;33.50;;;;;;5100219;28;20915;-87
2021/04/24 00:43:16;;;;;;;16.60;6.10;;;14.90;32.60;;;;;;5099766;28;20470;-87
2021/04/24 00:45:44;;;;;;;16.27;8.37;;;15.00;32.70;;;;;;5111284;28;20480;-87
2021/04/24 00:48:12;;;;;;;12.80;7.90;;;14.40;29.20;;;;;;5124954;28;20481;-87
2021/04/24 00:50:40;;;;;;;15.07;7.43;;;14.10;29.90;;;;;;5114176;28;20425;-86
2021/04/24 00:53:08;;;;;;;13.60;7.37;;;14.10;29.30;;;;;;5114795;28;20435;-86
2021/04/24 00:55:35;;;;;;;10.43;6.13;;;13.70;31.60;;;;;;5120713;28;20445;-85
2021/04/24 00:58:03;;;;;;;10.60;5.70;;;14.10;34.20;;;;;;5136612;28;20421;-85
2021/04/24 01:00:30;;;;;;;15.60;7.50;;;14.60;33.70;;;;;;5134532;28;20445;-86
2021/04/24 01:02:57;;;;;;;15.80;7.10;;;14.70;29.30;;;;;;5127727;28;20446;-87
2021/04/24 01:05:29;;;;;;;12.90;7.20;;;14.30;30.80;;;;;;5126941;28;20454;-86
2021/04/24 01:07:55;;;;;;;17.30;7.23;;;13.80;29.50;;;;;;5123993;28;20531;-87
2021/04/24 01:10:22;;;;;;;12.50;6.33;;;13.50;31.40;;;;;;5131651;28;20445;-87
2021/04/24 01:12:49;;;;;;;12.07;7.10;;;13.20;32.40;;;;;;5134346;28;20437;-86
2021/04/24 01:15:18;;;;;;;13.47;6.37;;;12.70;31.80;;;;;;5135914;28;20436;-87
2021/04/24 01:17:45;;;;;;;11.67;6.83;;;12.80;35.10;;;;;;5134792;28;20465;-87
2021/04/24 01:20:14;;;;;;;11.30;7.07;;;12.90;33.90;;;;;;5111472;28;20441;-88
2021/04/24 01:22:42;;;;;;;15.60;7.60;;;12.60;34.30;;;;;;5105761;28;20470;-86
2021/04/24 01:25:12;;;;;;;12.00;6.80;;;12.00;32.40;;;;;;5125334;28;20450;-86
2021/04/24 01:27:39;;;;;;;19.00;7.80;;;11.70;36.00;;;;;;5122376;28;20481;-87
2021/04/24 01:30:07;;;;;;;18.60;7.27;;;11.70;34.10;;;;;;5107178;28;20884;-86
2021/04/24 01:32:34;;;;;;;15.33;7.93;;;11.60;35.10;;;;;;5105037;28;20470;-86
2021/04/24 01:35:01;;;;;;;15.60;7.40;;;10.90;35.30;;;;;;5106044;28;20450;-86
2021/04/24 01:37:27;;;;;;;18.77;7.10;;;10.80;36.20;;;;;;5119210;28;20442;-86
2021/04/24 01:39:55;;;;;;;19.90;6.67;;;11.10;37.80;;;;;;5105618;28;20436;-86
2021/04/24 01:42:21;;;;;;;15.87;7.73;;;11.10;36.90;;;;;;5102066;28;20470;-86
2021/04/24 01:44:48;;;;;;;13.90;6.90;;;11.10;35.60;;;;;;5101417;28;20460;-87
2021/04/24 01:47:15;;;;;;;17.73;7.47;;;11.50;36.50;;;;;;5103370;28;20478;-87
2021/04/24 01:49:41;;;;;;;13.17;7.27;;;10.40;33.10;;;;;;5103941;28;20462;-86
2021/04/24 01:52:07;;;;;;;16.00;7.37;;;10.20;37.10;;;;;;5103966;28;20505;-86
2021/04/24 01:54:34;;;;;;;14.93;7.40;;;10.30;38.00;;;;;;5113539;28;20454;-87
2021/04/24 01:57:01;;;;;;;16.30;7.77;;;10.80;38.00;;;;;;5120705;28;20504;-86
2021/04/24 01:59:32;;;;;;;14.50;6.47;;;11.10;36.10;;;;;;5120698;28;20446;-86
2021/04/24 02:01:59;;;;;;;11.40;6.60;;;11.00;36.70;;;;;;5120463;28;20454;-86
2021/04/24 02:04:27;;;;;;;13.87;7.20;;;10.60;35.40;;;;;;5119855;28;20449;-86
2021/04/24 02:06:54;;;;;;;17.27;6.80;;;10.50;36.30;;;;;;5117854;28;20474;-86
2021/04/24 02:09:22;;;;;;;12.67;7.23;;;10.80;36.90;;;;;;5102045;28;20549;-86
2021/04/24 02:12:06;;;;;;;24.53;7.63;;;11.10;35.30;;;;;;5120437;28;20519;-86
2021/04/24 02:14:38;;;;;;;12.80;6.77;;;11.50;35.30;;;;;;5107891;28;20477;-86
2021/04/24 02:17:06;;;;;;;11.10;6.30;;;12.30;35.70;;;;;;5112876;28;20791;-86
2021/04/24 02:19:36;;;;;;;10.60;6.07;;;12.40;35.90;;;;;;5101731;28;20450;-86
2021/04/24 02:22:03;;;;;;;10.20;6.50;;;12.90;37.10;;;;;;5101408;28;20466;-86
2021/04/24 02:24:29;;;;;;;8.70;5.40;;;13.30;36.40;;;;;;5122358;28;20429;-87
2021/04/24 02:26:56;;;;;;;15.60;6.33;;;13.70;35.90;;;;;;5121690;27;20499;-87
2021/04/24 02:29:23;;;;;;;13.10;7.30;;;14.00;33.10;;;;;;5120702;28;20450;-87
2021/04/24 02:31:49;;;;;;;14.03;6.07;;;13.70;31.50;;;;;;5100938;28;20512;-87
2021/04/24 02:34:16;;;;;;;10.20;5.60;;;13.50;34.40;;;;;;5100380;28;20475;-87
2021/04/24 02:36:42;;;;;;;11.13;6.97;;;13.70;33.90;;;;;;5100224;28;21036;-87
2021/04/24 02:39:09;;;;;;;13.80;6.50;;;13.40;32.70;;;;;;5106079;28;20438;-86
2021/04/24 02:41:35;;;;;;;12.97;7.07;;;12.90;32.50;;;;;;5109064;28;20475;-87
2021/04/24 02:44:01;;;;;;;14.83;6.80;;;12.80;33.90;;;;;;5127391;28;20475;-86
2021/04/24 02:46:29;;;;;;;9.50;6.10;;;12.90;34.50;;;;;;5130590;28;20465;-86
2021/04/24 02:48:55;;;;;;;12.93;5.93;;;12.80;34.30;;;;;;5128351;28;20452;-87
2021/04/24 02:51:22;;;;;;;15.40;6.67;;;13.20;36.30;;;;;;5111388;28;20489;-86
2021/04/24 02:53:48;;;;;;;8.23;5.47;;;13.60;35.50;;;;;;5125578;28;20469;-86
2021/04/24 02:56:15;;;;;;;9.53;5.80;;;13.80;35.40;;;;;;5129021;28;20450;-86
2021/04/24 02:58:43;;;;;;;8.20;5.67;;;13.80;34.20;;;;;;5112942;28;20461;-86
2021/04/24 03:01:10;;;;;;;8.87;6.00;;;14.20;34.60;;;;;;5122747;28;20460;-86
2021/04/24 03:03:37;;;;;;;10.30;5.83;;;14.40;34.10;;;;;;5110919;28;20482;-86
2021/04/24 03:06:04;;;;;;;24.77;7.57;;;14.30;33.20;;;;;;5109448;28;20501;-87
2021/04/24 03:08:31;;;;;;;12.53;6.27;;;14.00;30.70;;;;;;5109936;28;20442;-87
2021/04/24 03:10:57;;;;;;;8.77;5.93;;;13.10;31.80;;;;;;5101595;28;20927;-86
2021/04/24 03:13:23;;;;;;;12.93;7.20;;;12.60;33.70;;;;;;5101508;28;20564;-86
2021/04/24 03:15:50;;;;;;;9.50;5.90;;;12.70;34.30;;;;;;5099739;28;20447;-87
2021/04/24 03:18:16;;;;;;;15.60;6.30;;;12.90;35.10;;;;;;5110341;28;20440;-86
2021/04/24 03:20:43;;;;;;;14.43;6.90;;;13.30;35.20;;;;;;5107596;28;20491;-86
2021/04/24 03:23:10;;;;;;;10.63;6.03;;;13.30;33.90;;;;;;5111308;28;20472;-87
2021/04/24 03:25:37;;;;;;;10.90;6.70;;;13.60;35.10;;;;;;5122547;28;20441;-87
2021/04/24 03:28:04;;;;;;;8.20;5.83;;;13.70;35.00;;;;;;5119794;28;20522;-87
2021/04/24 03:30:31;;;;;;;13.00;6.50;;;13.80;35.20;;;;;;5113207;28;20941;-86
2021/04/24 03:32:57;;;;;;;8.13;5.10;;;14.10;34.60;;;;;;5100192;28;20473;-86
2021/04/24 03:35:24;;;;;;;12.83;7.17;;;14.30;34.70;;;;;;5099952;28;20881;-86
2021/04/24 03:37:51;;;;;;;9.17;6.23;;;14.10;29.70;;;;;;5108056;28;20501;-88
2021/04/24 03:40:18;;;;;;;12.80;6.97;;;13.10;32.40;;;;;;5119520;28;20471;-86
2021/04/24 03:42:44;;;;;;;12.17;7.40;;;12.50;32.60;;;;;;5120388;28;20491;-87
2021/04/24 03:45:18;;;;;;;16.80;7.90;;;11.50;34.00;;;;;;5112899;28;20485;-87
2021/04/24 03:47:45;;;;;;;17.27;7.30;;;10.90;34.70;;;;;;5100697;28;20466;-86
2021/04/24 03:50:12;;;;;;;13.13;7.37;;;10.60;36.00;;;;;;5099362;28;20473;-86
2021/04/24 03:52:39;;;;;;;15.03;6.93;;;10.60;36.00;;;;;;5098745;28;20494;-87
2021/04/24 03:55:07;;;;;;;11.03;7.03;;;10.80;36.20;;;;;;5099477;28;20633;-86
2021/04/24 03:57:33;;;;;;;12.57;8.07;;;10.70;36.20;;;;;;5104362;28;20456;-86
2021/04/24 04:00:00;;;;;;;27.17;7.13;;;10.70;36.10;;;;;;5104697;28;20419;-86
2021/04/24 04:02:26;;;;;;;15.23;6.97;;;10.40;37.00;;;;;;5122928;28;20497;-86
2021/04/24 04:04:53;;;;;;;19.43;6.60;;;10.30;35.70;;;;;;5134563;28;20462;-86
2021/04/24 04:07:20;;;;;;;9.60;6.20;;;10.50;37.30;;;;;;5133972;28;20499;-86
2021/04/24 04:09:46;;;;;;;13.07;6.73;;;11.10;38.40;;;;;;5134399;28;20434;-86
2021/04/24 04:12:14;;;;;;;12.93;6.90;;;11.40;36.70;;;;;;5132158;28;20469;-86
2021/04/24 04:14:43;;;;;;;16.13;7.33;;;11.40;36.70;;;;;;5129933;28;20760;-87
2021/04/24 04:17:09;;;;;;;10.47;6.10;;;11.40;34.50;;;;;;5126900;28;20954;-87
2021/04/24 04:19:36;;;;;;;14.37;6.87;;;11.50;36.00;;;;;;5120213;28;20452;-87
2021/04/24 04:22:03;;;;;;;10.57;6.73;;;11.60;35.50;;;;;;5108037;28;20471;-87
2021/04/24 04:24:29;;;;;;;21.53;6.40;;;11.40;34.80;;;;;;5107797;28;20454;-88
2021/04/24 04:26:56;;;;;;;14.83;7.30;;;11.70;37.00;;;;;;5105785;28;21100;-87
2021/04/24 04:29:23;;;;;;;10.00;6.13;;;11.90;33.10;;;;;;5108246;28;20466;-87
2021/04/24 04:31:51;;;;;;;14.53;7.33;;;11.10;34.70;;;;;;5109253;28;20467;-87
2021/04/24 04:34:17;;;;;;;15.83;7.40;;;10.90;33.50;;;;;;5106031;28;20519;-86
2021/04/24 04:36:44;;;;;;;9.73;6.10;;;11.00;35.50;;;;;;5121789;28;20461;-87
2021/04/24 04:39:10;;;;;;;15.23;6.93;;;11.20;36.60;;;;;;5124468;28;20448;-86
2021/04/24 04:41:37;;;;;;;12.73;6.70;;;11.70;35.80;;;;;;5118741;28;20515;-87
2021/04/24 04:44:04;;;;;;;12.47;7.00;;;11.40;35.80;;;;;;5102323;28;20457;-86
2021/04/24 04:46:31;;;;;;;15.07;7.40;;;11.40;35.60;;;;;;5101082;28;20507;-86
2021/04/24 04:48:59;;;;;;;16.40;6.33;;;11.20;36.00;;;;;;5099948;28;20943;-86
2021/04/24 04:51:25;;;;;;;12.10;7.67;;;11.40;35.80;;;;;;5102374;28;20464;-87
2021/04/24 04:53:52;;;;;;;14.57;6.87;;;11.60;35.80;;;;;;5100533;28;20426;-87
2021/04/24 04:56:18;;;;;;;10.70;7.00;;;11.50;33.30;;;;;;5102512;28;20427;-86
2021/04/24 04:58:45;;;;;;;13.37;6.83;;;11.30;34.30;;;;;;5119805;28;20437;-87
2021/04/24 05:01:11;;;;;;;9.97;6.80;;;11.20;34.00;;;;;;5122324;28;20438;-86
2021/04/24 05:03:39;;;;;;;12.97;6.40;;;10.80;35.40;;;;;;5122257;28;20478;-86
2021/04/24 05:06:05;;;;;;;14.63;7.93;;;10.60;36.00;;;;;;5106651;28;20573;-86
2021/04/24 05:08:35;;;;;;;15.03;6.70;;;10.70;35.00;;;;;;5101991;28;20565;-87
2021/04/24 05:11:02;;;;;;;17.30;8.57;;;10.70;36.30;;;;;;5101362;28;20457;-87
2021/04/24 05:13:28;;;;;;;15.07;8.63;;;10.60;32.50;;;;;;5100173;28;20448;-86
2021/04/24 05:15:55;;;;;;;17.53;7.30;;;10.90;33.50;;;;;;5106941;28;20446;-87
2021/04/24 05:18:22;;;;;;;20.43;7.97;;;11.10;37.00;;;;;;5113509;28;20467;-87
2021/04/24 05:20:50;;;;;;;15.50;7.30;;;11.60;35.40;;;;;;5125256;28;20927;-87
2021/04/24 05:23:16;;;;;;;12.73;6.90;;;12.00;34.40;;;;;;5102251;27;20466;-86
2021/04/24 05:25:42;;;;;;;15.50;6.77;;;12.00;34.20;;;;;;5097137;28;20511;-86
2021/04/24 05:28:09;;;;;;;17.80;8.73;;;11.90;34.20;;;;;;5097205;28;20561;-86
2021/04/24 05:30:36;;;;;;;13.20;7.43;;;12.20;31.60;;;;;;5097533;28;20472;-86
2021/04/24 05:33:02;;;;;;;12.67;7.47;;;13.20;31.80;;;;;;5116431;28;20989;-86
2021/04/24 05:35:29;;;;;;;9.87;6.33;;;14.50;28.50;;;;;;5103166;28;20494;-87
2021/04/24 05:37:56;;;;;;;18.30;8.90;;;15.00;30.00;;;;;;5117430;28;20914;-88
2021/04/24 05:40:22;;;;;;;24.27;7.40;;;15.50;27.30;;;;;;5121654;28;20446;-88
2021/04/24 05:42:49;;;;;;;22.07;7.97;;;15.80;28.20;;;;;;5120161;28;20479;-88
2021/04/24 05:45:15;;;;;;;14.07;7.70;;;16.00;26.60;;;;;;5106454;28;20458;-86
2021/04/24 05:47:44;;;;;;;17.00;7.60;;;16.40;27.40;;;;;;5097151;28;20482;-86
2021/04/24 05:50:12;;;;;;;13.80;7.53;;;16.00;26.80;;;;;;5100144;28;20466;-86
2021/04/24 05:52:39;;;;;;;11.10;7.50;;;15.80;27.80;;;;;;5098378;28;20506;-86
2021/04/24 05:55:09;;;;;;;17.33;7.37;;;16.70;26.50;;;;;;5102924;28;20446;-86
2021/04/24 05:57:36;;;;;;;14.37;8.23;;;17.20;26.30;;;;;;5102304;28;20441;-86
2021/04/24 06:00:04;;;;;;;12.73;7.23;;;18.30;25.80;;;;;;5097100;28;20820;-86
2021/04/24 06:02:31;;;;;;;17.03;7.77;;;19.30;24.00;;;;;;5097507;28;20501;-86
2021/04/24 06:04:57;;;;;;;14.53;7.13;;;19.10;23.40;;;;;;5100464;28;20460;-86
2021/04/24 06:07:24;;;;;;;15.80;7.07;;;19.20;23.50;;;;;;5100806;28;20506;-86
2021/04/24 06:09:50;;;;;;;13.67;7.63;;;19.80;23.00;;;;;;5097280;28;20979;-87
2021/04/24 06:12:17;;;;;;;15.97;7.40;;;20.50;22.40;;;;;;5106222;28;20477;-86
2021/04/24 06:14:44;;;;;;;20.63;7.33;;;20.40;22.00;;;;;;5115744;28;20529;-86
2021/04/24 06:17:10;;;;;;;23.47;6.70;;;19.20;23.50;;;;;;5111630;28;20451;-87
2021/04/24 06:19:37;;;;;;;12.77;6.90;;;20.30;23.30;;;;;;5099859;28;20853;-87
2021/04/24 06:22:03;;;;;;;13.73;6.73;;;21.20;22.40;;;;;;5096400;28;20569;-86
2021/04/24 06:24:30;;;;;;;12.20;6.03;;;22.10;21.90;;;;;;5097028;28;20478;-87
2021/04/24 06:26:56;;;;;;;19.43;7.03;;;22.30;20.80;;;;;;5095507;28;20569;-87
2021/04/24 06:29:24;;;;;;;13.70;6.50;;;22.20;20.40;;;;;;5099531;28;20441;-86
2021/04/24 06:31:50;;;;;;;17.27;6.73;;;21.60;21.40;;;;;;5104277;28;20451;-88
2021/04/24 06:34:17;;;;;;;11.50;6.50;;;21.90;21.40;;;;;;5105295;28;20457;-89
2021/04/24 06:36:43;;;;;;;12.17;6.20;;;22.40;21.40;;;;;;5113209;28;20434;-87
2021/04/24 06:39:09;;;;;;;12.60;5.80;;;22.60;20.40;;;;;;5098612;28;20442;-87
2021/04/24 06:41:36;;;;;;;9.83;6.20;;;21.80;19.60;;;;;;5095676;28;20561;-86
2021/04/24 06:44:03;;;;;;;17.70;6.37;;;21.10;21.20;;;;;;5094875;28;20773;-87
2021/04/24 06:46:31;;;;;;;11.73;6.47;;;21.60;20.50;;;;;;5095229;28;20508;-87
2021/04/24 06:48:57;;;;;;;10.90;5.97;;;21.00;20.90;;;;;;5099241;28;20528;-88
2021/04/24 06:51:24;;;;;;;13.23;6.80;;;21.40;20.50;;;;;;5099436;28;20415;-87
2021/04/24 06:53:51;;;;;;;14.97;6.80;;;21.20;20.60;;;;;;5096598;28;20769;-87
2021/04/24 06:56:18;;;;;;;12.57;6.80;;;22.20;19.60;;;;;;5094949;28;20449;-87
2021/04/24 06:58:45;;;;;;;12.67;6.20;;;22.20;19.60;;;;;;5095053;28;20443;-87
2021/04/24 07:01:11;;;;;;;9.67;6.87;;;22.20;19.90;;;;;;5095592;28;20504;-87
2021/04/24 07:03:39;;;;;;;12.30;6.37;;;22.30;19.70;;;;;;5099388;28;20510;-87
2021/04/24 07:06:06;;;;;;;11.20;6.93;;;23.00;20.10;;;;;;5109032;28;20446;-87
2021/04/24 07:08:33;;;;;;;13.20;6.47;;;23.10;18.50;;;;;;5099313;28;20474;-86
2021/04/24 07:10:59;;;;;;;12.53;6.90;;;23.70;18.90;;;;;;5094823;28;20470;-86
2021/04/24 07:13:26;;;;;;;26.30;7.70;;;23.40;18.60;;;;;;5094963;28;20505;-86
2021/04/24 07:15:52;;;;;;;13.83;6.93;;;23.60;19.20;;;;;;5108500;28;20482;-86
2021/04/24 07:18:19;;;;;;;13.37;7.40;;;24.60;18.20;;;;;;5103591;28;20439;-86
2021/04/24 07:20:49;;;;;;;13.50;7.07;;;23.70;18.10;;;;;;5100035;28;20515;-86
2021/04/24 07:23:19;;;;;;;14.33;7.80;;;23.90;18.70;;;;;;5101259;28;20470;-87
2021/04/24 07:25:45;;;;;;;19.10;7.33;;;25.30;18.10;;;;;;5098462;28;20458;-87
2021/04/24 07:28:11;;;;;;;10.70;6.80;;;25.90;17.20;;;;;;5097474;28;20561;-87
2021/04/24 07:30:38;;;;;;;26.13;9.27;;;24.40;17.80;;;;;;5094398;28;20534;-87
2021/04/24 07:33:04;;;;;;;13.60;7.50;;;24.30;18.30;;;;;;5093903;28;20530;-87
2021/04/24 07:35:31;;;;;;;14.90;6.80;;;24.50;18.50;;;;;;5094131;28;20458;-88
2021/04/24 07:37:58;;;;;;;17.93;8.27;;;24.90;17.70;;;;;;5098932;28;20438;-85
2021/04/24 07:40:25;;;;;;;13.30;8.07;;;25.70;17.10;;;;;;5100716;28;20549;-87
2021/04/24 07:42:51;;;;;;;13.47;7.27;;;25.10;17.90;;;;;;5100944;28;20471;-87
2021/04/24 07:45:18;;;;;;;12.10;7.43;;;24.60;18.00;;;;;;5098378;28;20451;-87
2021/04/24 07:47:44;;;;;;;11.20;7.03;;;25.00;18.00;;;;;;5095266;28;20554;-86
2021/04/24 07:50:14;;;;;;;13.60;7.97;;;25.20;17.60;;;;;;5094652;28;20474;-86
2021/04/24 07:52:40;;;;;;;13.93;7.50;;;24.80;17.20;;;;;;5094042;28;20596;-86
2021/04/24 07:55:08;;;;;;;17.30;7.43;;;25.50;17.10;;;;;;5094477;28;20438;-86
2021/04/24 07:57:35;;;;;;;18.37;7.33;;;23.60;18.30;;;;;;5101965;28;20469;-88
2021/04/24 08:00:01;;;;;;;13.80;7.53;;;24.10;18.00;;;;;;5099125;28;20458;-87
2021/04/24 08:02:28;;;;;;;13.57;7.57;;;24.60;17.90;;;;;;5098929;28;20539;-87
2021/04/24 08:04:54;;;;;;;14.73;7.83;;;24.80;16.80;;;;;;5099371;28;20512;-87
2021/04/24 08:07:20;;;;;;;15.13;7.13;;;25.50;16.50;;;;;;5110744;28;20528;-88
2021/04/24 08:09:47;;;;;;;22.17;9.67;;;25.50;17.00;;;;;;5094056;28;20489;-85
2021/04/24 08:12:14;;;;;;;17.27;8.83;;;24.90;17.20;;;;;;5093695;28;20477;-87
2021/04/24 08:14:41;;;;;;;15.07;7.43;;;24.60;16.40;;;;;;5095017;28;20503;-87
2021/04/24 08:17:07;;;;;;;18.03;8.77;;;24.30;16.80;;;;;;5099066;28;20849;-87
2021/04/24 08:19:34;;;;;;;20.07;9.23;;;24.30;16.70;;;;;;5098312;28;20434;-86
2021/04/24 08:22:00;;;;;;;16.13;7.20;;;24.10;16.80;;;;;;5094172;28;20503;-86
2021/04/24 08:24:27;;;;;;;14.97;7.10;;;24.20;17.10;;;;;;5112686;28;20459;-86
2021/04/24 08:26:53;;;;;;;14.67;8.90;;;24.60;17.00;;;;;;5093527;28;20512;-87
2021/04/24 08:29:21;;;;;;;18.60;8.07;;;25.40;16.20;;;;;;5094379;28;20457;-87
2021/04/24 08:31:47;;;;;;;18.77;8.90;;;24.80;16.50;;;;;;5097723;28;20516;-88
2021/04/24 08:34:14;;;;;;;21.33;7.07;;;24.50;16.90;;;;;;5118012;28;20450;-88
2021/04/24 08:36:41;;;;;;;21.93;8.93;;;24.90;16.90;;;;;;5098472;28;20481;-88
2021/04/24 08:39:08;;;;;;;20.50;8.07;;;24.40;17.50;;;;;;5097920;28;20462;-87
2021/04/24 08:41:35;;;;;;;18.23;8.20;;;24.50;17.90;;;;;;5096939;28;21018;-88
2021/04/24 08:44:01;;;;;;;26.10;9.57;;;23.80;17.50;;;;;;5116976;28;20540;-88
2021/04/24 08:46:29;;;;;;;18.30;8.27;;;23.80;17.80;;;;;;5118931;28;20462;-88
2021/04/24 08:48:57;;;;;;;19.67;8.20;;;23.50;19.20;;;;;;5122260;28;20516;-87
2021/04/24 08:51:26;;;;;;;11.90;7.60;;;23.30;19.10;;;;;;5120735;28;20460;-85
2021/04/24 08:53:53;;;;;;;14.80;8.30;;;23.00;18.70;;;;;;5125425;27;20475;-88
2021/04/24 08:56:24;;;;;;;16.60;7.83;;;22.50;19.30;;;;;;5120051;28;20462;-86
2021/04/24 08:58:50;;;;;;;39.33;9.23;;;21.90;18.90;;;;;;5103691;28;20521;-86
2021/04/24 09:01:17;;;;;;;19.40;7.73;;;21.00;18.70;;;;;;5100686;28;20545;-87
2021/04/24 09:03:44;;;;;;;16.00;6.97;;;20.50;20.50;;;;;;5116951;28;20497;-88
2021/04/24 09:06:11;;;;;;;20.57;8.97;;;20.70;20.00;;;;;;5107433;28;20438;-87
2021/04/24 09:08:37;;;;;;;17.63;9.00;;;20.70;20.10;;;;;;5112492;28;20485;-87
2021/04/24 09:11:06;;;;;;;24.97;8.87;;;20.90;20.20;;;;;;5103416;28;20560;-87
2021/04/24 09:13:33;;;;;;;16.47;8.77;;;20.40;21.00;;;;;;5096463;28;20505;-88
2021/04/24 09:16:00;;;;;;;19.70;8.47;;;20.60;20.70;;;;;;5096705;28;20461;-88
2021/04/24 09:18:27;;;;;;;14.80;8.40;;;20.40;20.60;;;;;;5096421;28;20493;-86
2021/04/24 09:20:56;;;;;;;15.60;7.90;;;20.40;21.20;;;;;;5110256;28;20552;-87
2021/04/24 09:23:28;;;;;;;38.70;8.47;;;20.60;20.70;;;;;;5101740;28;20470;-87
2021/04/24 09:25:59;;;;;;;30.33;9.07;;;20.60;20.80;;;;;;5096463;28;20445;-86
2021/04/24 09:28:30;;;;;;;19.73;8.80;;;20.50;21.80;;;;;;5114731;28;20499;-87
2021/04/24 09:30:59;;;;;;;21.57;8.13;;;20.20;21.30;;;;;;5105986;27;20545;-87
2021/04/24 09:33:31;;;;;;;23.00;8.63;;;19.90;21.70;;;;;;5115408;28;20504;-87
2021/04/24 09:35:58;;;;;;;17.77;9.07;;;19.80;21.80;;;;;;5101268;28;20452;-88
2021/04/24 09:38:29;;;;;;;15.10;8.13;;;20.10;20.90;;;;;;5113691;28;20549;-86
2021/04/24 09:41:14;;;;;;;14.10;7.43;;;20.00;21.90;;;;;;5101817;28;20893;-87
2021/04/24 09:44:02;;;;;;;20.17;7.63;;;20.10;21.00;;;;;;5115600;28;20441;-87
2021/04/24 09:46:32;;;;;;;19.23;9.30;;;20.40;20.30;;;;;;5097818;28;20513;-87
2021/04/24 09:49:13;;;;;;;20.57;7.93;;;20.30;21.10;;;;;;5099057;28;20975;-87
2021/04/24 09:51:43;;;;;;;18.60;8.17;;;20.10;20.90;;;;;;5100287;28;20478;-86
2021/04/24 09:54:10;;;;;;;16.90;9.13;;;20.10;19.80;;;;;;5099105;28;20463;-87
2021/04/24 09:56:37;;;;;;;23.07;9.00;;;19.60;19.20;;;;;;5101125;28;20434;-86
2021/04/24 09:59:05;;;;;;;12.23;6.90;;;19.00;20.60;;;;;;5097631;28;20426;-87
2021/04/24 10:01:32;;;;;;;16.30;8.93;;;19.00;20.30;;;;;;5097343;28;20434;-87
2021/04/24 10:04:00;;;;;;;19.40;8.23;;;19.60;19.90;;;;;;5097885;28;20458;-87
2021/04/24 10:06:32;;;;;;;16.53;7.97;;;19.80;19.90;;;;;;5103279;28;20454;-87
2021/04/24 10:09:27;;;;;;;11.83;6.70;;;19.90;17.90;;;;;;5116458;28;20458;-87
2021/04/24 10:12:08;;;;;;;14.40;7.80;;;19.70;18.70;;;;;;5119847;28;20443;-86
2021/04/24 10:14:36;;;;;;;18.33;8.13;;;18.90;18.90;;;;;;5119225;28;20458;-86
2021/04/24 10:17:04;;;;;;;14.53;7.63;;;19.00;19.30;;;;;;5120349;28;20473;-87
2021/04/24 10:19:32;;;;;;;16.00;9.00;;;19.70;19.30;;;;;;5121146;28;20460;-86
2021/04/24 10:21:59;;;;;;;18.97;8.63;;;19.80;19.80;;;;;;5139862;28;20481;-87
2021/04/24 10:24:27;;;;;;;16.00;7.80;;;19.50;19.40;;;;;;5120657;28;20464;-87
2021/04/24 10:26:55;;;;;;;22.20;9.20;;;19.30;18.90;;;;;;5104069;28;21284;-87
2021/04/24 10:29:22;;;;;;;16.27;8.20;;;19.60;19.00;;;;;;5112423;28;20442;-86
2021/04/24 10:31:49;;;;;;;21.77;8.87;;;19.90;18.20;;;;;;5136467;28;20491;-87
2021/04/24 10:34:16;;;;;;;21.43;8.53;;;19.70;17.90;;;;;;5119956;28;20469;-88
2021/04/24 10:36:42;;;;;;;16.03;8.23;;;20.10;18.70;;;;;;5120053;28;20461;-87
2021/04/24 10:39:12;;;;;;;23.13;8.80;;;20.20;17.70;;;;;;5120198;28;20430;-87
2021/04/24 10:41:41;;;;;;;13.73;7.97;;;20.00;18.00;;;;;;5113809;28;20470;-87
2021/04/24 10:44:10;;;;;;;21.67;7.40;;;20.10;17.80;;;;;;5111995;28;20423;-88
2021/04/24 10:46:37;;;;;;;21.33;8.27;;;19.90;18.70;;;;;;5106758;28;20446;-88
2021/04/24 10:49:25;;;;;;;18.60;8.60;;;19.90;17.90;;;;;;5103404;28;20474;-88
2021/04/24 10:52:08;;;;;;;20.23;8.50;;;20.00;18.00;;;;;;5103677;28;20963;-88
2021/04/24 10:54:37;;;;;;;15.37;8.07;;;20.70;16.90;;;;;;5102834;28;20430;-87
2021/04/24 10:57:42;;;;;;;24.07;8.20;;;21.10;17.30;;;;;;5102399;28;20445;-87
2021/04/24 11:00:10;;;;;;;45.17;23.63;;;21.30;17.20;;;;;;5102923;28;20459;-88
2021/04/24 11:02:41;;;;;;;21.73;11.37;;;21.20;17.10;;;;;;5106984;28;20564;-88
2021/04/24 11:05:28;;;;;;;24.13;7.90;;;21.20;18.30;;;;;;5114355;28;20924;-89
2021/04/24 11:08:23;;;;;;;21.50;8.37;;;21.10;17.20;;;;;;5102508;28;20542;-88
2021/04/24 11:10:57;;;;;;;9.77;5.83;;;21.70;16.80;;;;;;5104595;28;20457;-87
2021/04/24 11:13:26;;;;;;;18.53;8.07;;;21.80;18.30;;;;;;5101391;28;20477;-88
2021/04/24 11:15:54;;;;;;;17.27;8.40;;;22.00;17.30;;;;;;5124265;28;20469;-88
2021/04/24 11:18:20;;;;;;;13.50;8.60;;;22.10;17.00;;;;;;5124205;28;20447;-88
2021/04/24 11:20:49;;;;;;;24.60;9.60;;;22.20;16.70;;;;;;5129671;28;20922;-88
2021/04/24 11:23:45;;;;;;;18.50;8.60;;;21.80;16.90;;;;;;5137999;27;20461;-87
2021/04/24 11:26:15;;;;;;;15.63;8.20;;;21.70;17.30;;;;;;5122460;27;20438;-87
2021/04/24 11:29:06;;;;;;;18.07;8.23;;;21.60;16.80;;;;;;5111963;28;20478;-87
2021/04/24 11:31:52;;;;;;;17.50;7.93;;;21.60;16.80;;;;;;5101676;28;20523;-87
2021/04/24 11:34:34;;;;;;;17.30;8.80;;;21.80;17.10;;;;;;5102485;28;20438;-87
2021/04/24 11:37:37;;;;;;;13.20;7.93;;;22.30;17.00;;;;;;5101471;28;20820;-87
2021/04/24 11:40:31;;;;;;;17.33;9.23;;;22.50;17.70;;;;;;5118869;28;20836;-87
2021/04/24 11:43:00;;;;;;;17.27;8.07;;;21.60;16.80;;;;;;5118012;28;20986;-88
2021/04/24 11:45:50;;;;;;;13.80;7.70;;;21.60;17.20;;;;;;5117390;28;20449;-87
2021/04/24 11:48:18;;;;;;;20.90;8.70;;;21.70;17.30;;;;;;5117814;28;20466;-88
2021/04/24 11:50:45;;;;;;;13.20;8.27;;;21.70;16.60;;;;;;5118281;28;20465;-87
2021/04/24 11:53:14;;;;;;;27.83;8.77;;;21.80;16.80;;;;;;5116356;28;20751;-88
2021/04/24 11:55:41;;;;;;;16.87;9.53;;;21.70;16.90;;;;;;5116188;28;20501;-87
2021/04/24 11:58:09;;;;;;;13.33;8.00;;;21.80;17.70;;;;;;5128386;28;20457;-87
2021/04/24 12:00:36;;;;;;;18.10;8.10;;;21.80;17.50;;;;;;5136963;28;20461;-87
2021/04/24 12:03:05;;;;;;;15.67;8.83;;;21.60;17.30;;;;;;5137992;28;20476;-86
2021/04/24 12:05:40;;;;;;;20.17;8.03;;;21.60;17.20;;;;;;5137875;28;20422;-86
2021/04/24 12:08:06;;;;;;;15.03;7.80;;;22.10;16.50;;;;;;5136824;28;20559;-86
2021/04/24 12:10:33;;;;;;;16.20;8.00;;;22.40;15.80;;;;;;5138377;28;20448;-86
2021/04/24 12:13:07;;;;;;;12.93;7.30;;;22.50;15.70;;;;;;5137680;28;20484;-86
2021/04/24 12:15:34;;;;;;;13.83;7.90;;;23.00;15.90;;;;;;5129122;28;20442;-87
2021/04/24 12:18:02;;;;;;;12.27;7.30;;;23.10;14.80;;;;;;5117987;28;20464;-87
2021/04/24 12:20:31;;;;;;;19.17;7.43;;;22.90;15.00;;;;;;5117944;28;20439;-87
2021/04/24 12:23:00;;;;;;;12.43;7.20;;;22.20;15.30;;;;;;5116501;28;20458;-87
2021/04/24 12:25:28;;;;;;;10.63;6.83;;;22.30;15.00;;;;;;5117623;28;20461;-86
2021/04/24 12:27:56;;;;;;;12.80;7.73;;;22.00;14.90;;;;;;5116655;28;20466;-87
2021/04/24 12:30:24;;;;;;;11.50;7.93;;;22.30;15.40;;;;;;5115776;28;20435;-88
2021/04/24 12:32:53;;;;;;;17.83;6.90;;;22.70;15.30;;;;;;5117279;28;20458;-87
2021/04/24 12:35:22;;;;;;;17.00;8.00;;;22.70;15.50;;;;;;5138079;28;20421;-87
2021/04/24 12:37:59;;;;;;;15.83;7.60;;;23.00;15.30;;;;;;5137214;28;20422;-87
2021/04/24 12:40:26;;;;;;;18.00;8.83;;;22.80;15.50;;;;;;5133760;28;20493;-87
2021/04/24 12:43:00;;;;;;;14.83;8.00;;;22.50;14.80;;;;;;5116653;28;20470;-87
2021/04/24 12:45:26;;;;;;;47.77;8.60;;;22.30;15.20;;;;;;5117783;28;20422;-87